Time;durP1;ratioP1;P1;durP2;ratioP2;P2;SDS_P1;SDS_P2;PMS_P1;PMS_P2;Temp;Humidity;BMP_temperature;BMP_pressure;BME280_temperature;BME280_humidity;BME280_pressure;Samples;Min_cycle;Max_cycle;Signal;HPM_P1;HPM_P2
2020/12/07 00:00:36;;;;;;;15.60;9.73;;;;;;;;;;5048100;28;20447;-93
2020/12/07 00:03:02;;;;;;;15.57;11.80;;;;;;;;;;5045950;28;20491;-92
2020/12/07 00:05:33;;;;;;;15.70;10.73;;;;;;;;;;5048652;28;20492;-94
2020/12/07 00:08:01;;;;;;;19.43;11.43;;;;;;;;;;5053977;28;20480;-92
2020/12/07 00:10:27;;;;;;;15.20;11.70;;;;;;;;;;5051374;28;20491;-91
2020/12/07 00:12:54;;;;;;;15.60;11.00;;;;;;;;;;5054353;28;20447;-92
2020/12/07 00:15:20;;;;;;;14.17;11.00;;;;;;;;;;5046701;28;20525;-91
2020/12/07 00:17:46;;;;;;;18.77;12.20;;;;;;;;;;5041749;28;20453;-90
2020/12/07 00:20:12;;;;;;;19.17;12.57;;;;;;;;;;5043733;28;20812;-93
2020/12/07 00:22:38;;;;;;;17.47;11.83;;;;;;;;;;5041732;28;20455;-94
2020/12/07 00:25:05;;;;;;;16.80;11.40;;;;;;;;;;5055136;28;21259;-93
2020/12/07 00:27:31;;;;;;;16.80;12.67;;;;;;;;;;5043904;28;20497;-94
2020/12/07 00:29:59;;;;;;;15.90;11.83;;;;;;;;;;5028247;28;20450;-94
2020/12/07 00:32:25;;;;;;;18.77;11.37;;;;;;;;;;5039875;28;20500;-93
2020/12/07 00:34:51;;;;;;;14.80;10.80;;;;;;;;;;5048109;28;20986;-95
2020/12/07 00:37:18;;;;;;;24.07;11.83;;;;;;;;;;5047298;28;20459;-95
2020/12/07 00:39:46;;;;;;;14.80;11.23;;;;;;;;;;5030504;28;20454;-96
2020/12/07 00:42:12;;;;;;;18.93;11.97;;;;;;;;;;5033463;28;20421;-96
2020/12/07 00:44:38;;;;;;;19.17;12.77;;;;;;;;;;5036006;28;20490;-94
2020/12/07 00:47:06;;;;;;;14.40;12.10;;;;;;;;;;5045823;28;20484;-92
2020/12/07 00:49:32;;;;;;;18.30;12.57;;;;;;;;;;5041910;28;20468;-93
2020/12/07 00:51:58;;;;;;;20.33;11.97;;;;;;;;;;5047684;28;20449;-93
2020/12/07 00:54:24;;;;;;;16.50;11.30;;;;;;;;;;5052268;28;20471;-94
2020/12/07 00:56:52;;;;;;;15.10;11.43;;;;;;;;;;5047540;28;20475;-96
2020/12/07 00:59:21;;;;;;;17.43;12.17;;;;;;;;;;5046197;28;20482;-94
2020/12/07 01:01:47;;;;;;;17.73;12.20;;;;;;;;;;5044007;28;20460;-94
2020/12/07 01:04:14;;;;;;;20.70;12.50;;;;;;;;;;5044516;28;20478;-95
2020/12/07 01:06:40;;;;;;;17.67;11.77;;;;;;;;;;5031571;28;20457;-93
2020/12/07 01:09:06;;;;;;;17.17;11.37;;;;;;;;;;5027356;28;20458;-95
2020/12/07 01:11:32;;;;;;;17.93;12.00;;;;;;;;;;5030649;28;20970;-94
2020/12/07 01:14:00;;;;;;;17.43;12.17;;;;;;;;;;5059673;28;20467;-95
2020/12/07 01:16:26;;;;;;;17.57;12.83;;;;;;;;;;5068651;28;20958;-96
2020/12/07 01:18:52;;;;;;;15.87;12.10;;;;;;;;;;5044930;28;20957;-93
2020/12/07 01:21:19;;;;;;;15.83;10.90;;;;;;;;;;5047026;28;20471;-94
2020/12/07 01:23:45;;;;;;;16.83;10.80;;;;;;;;;;5043719;28;20492;-93
2020/12/07 01:26:13;;;;;;;15.83;11.03;;;;;;;;;;5046871;28;20467;-92
2020/12/07 01:28:39;;;;;;;16.40;11.63;;;;;;;;;;5034190;28;20491;-94
2020/12/07 01:31:05;;;;;;;16.00;11.40;;;;;;;;;;5026837;28;20471;-93
2020/12/07 01:33:31;;;;;;;15.00;10.00;;;;;;;;;;5042869;28;20468;-92
2020/12/07 01:35:59;;;;;;;14.87;10.93;;;;;;;;;;5043533;28;20462;-95
2020/12/07 01:38:26;;;;;;;17.50;11.20;;;;;;;;;;5041919;28;20457;-95
2020/12/07 01:40:53;;;;;;;16.00;11.00;;;;;;;;;;5041568;28;20451;-94
2020/12/07 01:43:19;;;;;;;18.07;11.03;;;;;;;;;;5046736;28;20449;-92
2020/12/07 01:45:45;;;;;;;14.67;10.77;;;;;;;;;;5044271;28;20512;-92
2020/12/07 01:48:11;;;;;;;16.93;11.53;;;;;;;;;;5040930;28;20495;-95
2020/12/07 01:50:39;;;;;;;16.17;10.13;;;;;;;;;;5035615;28;20447;-93
2020/12/07 01:53:05;;;;;;;10.97;9.53;;;;;;;;;;5056318;28;20460;-93
2020/12/07 01:55:33;;;;;;;14.03;9.57;;;;;;;;;;5044296;28;21099;-91
2020/12/07 01:57:59;;;;;;;13.50;9.43;;;;;;;;;;5039156;28;20453;-92
2020/12/07 02:00:27;;;;;;;13.10;9.63;;;;;;;;;;5035372;28;20464;-89
2020/12/07 02:02:54;;;;;;;13.43;8.67;;;;;;;;;;5050696;28;20476;-93
2020/12/07 02:05:20;;;;;;;12.50;8.10;;;;;;;;;;5058030;28;20476;-93
2020/12/07 02:07:47;;;;;;;12.93;9.67;;;;;;;;;;5038213;28;20477;-96
2020/12/07 02:10:13;;;;;;;12.80;9.70;;;;;;;;;;5043797;28;20450;-91
2020/12/07 02:12:40;;;;;;;13.73;9.83;;;;;;;;;;5041097;28;20479;-93
2020/12/07 02:15:06;;;;;;;16.67;10.00;;;;;;;;;;5044215;28;20453;-96
2020/12/07 02:17:33;;;;;;;14.70;9.77;;;;;;;;;;5034980;28;20462;-94
2020/12/07 02:20:00;;;;;;;13.40;9.87;;;;;;;;;;5028512;28;20452;-94
2020/12/07 02:22:26;;;;;;;12.37;9.10;;;;;;;;;;5039452;28;20466;-91
2020/12/07 02:24:52;;;;;;;11.80;9.13;;;;;;;;;;5044439;28;20490;-93
2020/12/07 02:27:18;;;;;;;13.07;9.10;;;;;;;;;;5042864;28;20493;-94
2020/12/07 02:29:44;;;;;;;14.03;8.67;;;;;;;;;;5041122;28;20467;-92
2020/12/07 02:32:14;;;;;;;12.87;9.20;;;;;;;;;;5043557;28;20885;-94
2020/12/07 02:34:40;;;;;;;13.20;9.30;;;;;;;;;;5027560;28;20455;-94
2020/12/07 02:37:08;;;;;;;12.80;9.63;;;;;;;;;;5005931;28;20461;-92
2020/12/07 02:39:34;;;;;;;11.63;9.23;;;;;;;;;;5025651;28;20462;-93
2020/12/07 02:42:01;;;;;;;11.93;8.93;;;;;;;;;;5062134;28;20459;-95
2020/12/07 02:44:27;;;;;;;12.40;8.90;;;;;;;;;;5055435;28;20477;-92
2020/12/07 02:46:53;;;;;;;14.03;9.20;;;;;;;;;;5043870;28;20442;-94
2020/12/07 02:49:19;;;;;;;12.40;9.70;;;;;;;;;;5044031;28;20467;-90
2020/12/07 02:51:52;;;;;;;12.47;8.90;;;;;;;;;;5042628;28;20471;-94
2020/12/07 02:54:19;;;;;;;12.80;9.17;;;;;;;;;;5042326;28;20514;-93
2020/12/07 02:56:45;;;;;;;13.93;9.90;;;;;;;;;;5027687;28;20453;-95
2020/12/07 02:59:11;;;;;;;16.60;10.20;;;;;;;;;;5024857;28;20441;-93
2020/12/07 03:01:37;;;;;;;12.47;9.47;;;;;;;;;;5050830;28;20459;-92
2020/12/07 03:04:03;;;;;;;14.70;10.00;;;;;;;;;;5043980;28;20458;-93
2020/12/07 03:06:30;;;;;;;15.53;10.77;;;;;;;;;;5037345;28;20463;-94
2020/12/07 03:08:56;;;;;;;12.50;9.53;;;;;;;;;;5022859;28;20489;-94
2020/12/07 03:11:23;;;;;;;13.93;10.83;;;;;;;;;;5040522;28;20454;-93
2020/12/07 03:13:50;;;;;;;12.57;8.93;;;;;;;;;;5041021;28;20451;-92
2020/12/07 03:16:16;;;;;;;12.50;9.00;;;;;;;;;;5043860;28;20798;-92
2020/12/07 03:18:42;;;;;;;13.23;9.63;;;;;;;;;;5040508;28;21000;-91
2020/12/07 03:21:09;;;;;;;12.20;8.80;;;;;;;;;;5063750;28;20454;-92
2020/12/07 03:23:35;;;;;;;13.50;10.07;;;;;;;;;;5045579;28;20473;-93
2020/12/07 03:26:01;;;;;;;15.93;10.00;;;;;;;;;;5023665;28;20460;-93
2020/12/07 03:28:28;;;;;;;12.70;8.97;;;;;;;;;;5024763;28;20508;-94
2020/12/07 03:30:55;;;;;;;11.63;9.90;;;;;;;;;;5044606;28;20475;-95
2020/12/07 03:33:21;;;;;;;15.37;10.30;;;;;;;;;;5043338;28;20445;-93
2020/12/07 03:35:47;;;;;;;16.87;10.63;;;;;;;;;;5032512;28;20453;-93
2020/12/07 03:38:13;;;;;;;13.93;10.07;;;;;;;;;;5027387;28;20532;-93
2020/12/07 03:40:39;;;;;;;12.93;9.37;;;;;;;;;;5021728;28;20458;-93
2020/12/07 03:43:05;;;;;;;13.37;10.00;;;;;;;;;;5043191;28;20450;-92
2020/12/07 03:45:32;;;;;;;12.47;10.03;;;;;;;;;;5037396;28;20531;-93
2020/12/07 03:48:01;;;;;;;13.70;10.77;;;;;;;;;;5043868;28;20505;-95
2020/12/07 03:50:27;;;;;;;16.77;10.87;;;;;;;;;;5041278;28;20894;-94
2020/12/07 03:52:53;;;;;;;12.40;10.30;;;;;;;;;;5043040;28;20446;-92
2020/12/07 03:55:20;;;;;;;15.80;10.30;;;;;;;;;;5040906;28;20449;-94
2020/12/07 03:57:46;;;;;;;10.90;8.60;;;;;;;;;;5029483;28;20466;-93
2020/12/07 04:00:12;;;;;;;14.37;8.93;;;;;;;;;;5028923;28;20439;-93
2020/12/07 04:02:39;;;;;;;12.63;9.37;;;;;;;;;;5041156;28;20477;-94
2020/12/07 04:05:11;;;;;;;12.20;9.03;;;;;;;;;;5047503;28;20458;-94
2020/12/07 04:07:37;;;;;;;13.20;8.80;;;;;;;;;;5042580;28;20565;-93
2020/12/07 04:10:03;;;;;;;12.33;9.40;;;;;;;;;;5070321;28;20444;-95
2020/12/07 04:12:29;;;;;;;11.70;9.30;;;;;;;;;;5055869;28;21184;-93
2020/12/07 04:14:55;;;;;;;11.57;8.97;;;;;;;;;;5028592;28;20446;-92
2020/12/07 04:17:21;;;;;;;12.27;8.83;;;;;;;;;;5033037;28;20476;-93
2020/12/07 04:19:48;;;;;;;14.10;9.87;;;;;;;;;;5049698;28;20454;-94
2020/12/07 04:22:14;;;;;;;11.87;8.83;;;;;;;;;;5048491;28;20441;-92
2020/12/07 04:24:40;;;;;;;12.13;9.90;;;;;;;;;;5029965;28;20485;-93
2020/12/07 04:27:07;;;;;;;11.57;8.90;;;;;;;;;;5036393;28;20462;-96
2020/12/07 04:29:33;;;;;;;11.43;8.70;;;;;;;;;;5051540;28;20452;-95
2020/12/07 04:31:59;;;;;;;12.60;9.13;;;;;;;;;;5048477;28;20429;-95
2020/12/07 04:34:26;;;;;;;11.43;8.70;;;;;;;;;;5039948;28;20455;-95
2020/12/07 04:36:55;;;;;;;11.47;9.07;;;;;;;;;;5041690;28;20464;-93
2020/12/07 04:39:21;;;;;;;11.63;9.00;;;;;;;;;;5062224;28;21190;-93
2020/12/07 04:41:47;;;;;;;11.97;8.00;;;;;;;;;;5031743;28;20458;-92
2020/12/07 04:44:13;;;;;;;12.07;9.00;;;;;;;;;;5028097;28;20468;-93
2020/12/07 04:46:39;;;;;;;9.60;7.87;;;;;;;;;;5038799;28;20477;-93
2020/12/07 04:49:06;;;;;;;12.40;7.80;;;;;;;;;;5046264;28;20496;-96
2020/12/07 04:51:32;;;;;;;13.53;7.83;;;;;;;;;;5039764;28;20460;-94
2020/12/07 04:54:01;;;;;;;8.83;7.70;;;;;;;;;;5045170;28;20459;-94
2020/12/07 04:56:27;;;;;;;8.70;7.30;;;;;;;;;;5046814;28;20465;-93
2020/12/07 04:58:54;;;;;;;7.77;6.33;;;;;;;;;;5044870;28;21823;-94
2020/12/07 05:01:21;;;;;;;8.77;7.07;;;;;;;;;;5044650;28;20462;-94
2020/12/07 05:03:47;;;;;;;7.20;5.70;;;;;;;;;;5046080;28;20543;-91
2020/12/07 05:06:17;;;;;;;7.33;5.47;;;;;;;;;;5054283;28;20466;-94
2020/12/07 05:08:43;;;;;;;8.23;6.87;;;;;;;;;;5032250;28;20500;-93
2020/12/07 05:11:10;;;;;;;8.57;6.37;;;;;;;;;;5035439;28;20442;-92
2020/12/07 05:13:39;;;;;;;6.03;5.43;;;;;;;;;;5034164;28;20456;-90
2020/12/07 05:16:05;;;;;;;10.13;7.83;;;;;;;;;;5041808;28;20477;-94
2020/12/07 05:18:32;;;;;;;9.10;7.20;;;;;;;;;;5036356;28;20458;-94
2020/12/07 05:20:59;;;;;;;12.00;8.13;;;;;;;;;;5045476;28;20441;-95
2020/12/07 05:23:25;;;;;;;10.50;7.97;;;;;;;;;;5043112;28;20483;-94
2020/12/07 05:25:51;;;;;;;9.93;7.40;;;;;;;;;;5046062;28;20471;-94
2020/12/07 05:28:26;;;;;;;14.03;8.90;;;;;;;;;;5052965;28;20459;-94
2020/12/07 05:30:52;;;;;;;14.30;9.03;;;;;;;;;;5042032;28;20510;-90
2020/12/07 05:33:18;;;;;;;11.40;8.17;;;;;;;;;;5041572;28;20455;-90
2020/12/07 05:35:51;;;;;;;16.90;9.27;;;;;;;;;;5039454;28;20466;-89
2020/12/07 05:38:17;;;;;;;20.70;10.20;;;;;;;;;;5039450;28;20443;-91
2020/12/07 05:40:43;;;;;;;12.73;9.47;;;;;;;;;;5030148;28;20447;-92
2020/12/07 05:43:09;;;;;;;14.83;11.83;;;;;;;;;;5034151;28;20451;-91
2020/12/07 05:45:36;;;;;;;16.67;13.50;;;;;;;;;;5047174;28;20459;-91
2020/12/07 05:48:02;;;;;;;16.33;12.23;;;;;;;;;;5043253;28;20500;-93
2020/12/07 05:50:31;;;;;;;14.77;11.00;;;;;;;;;;5041261;28;20475;-93
2020/12/07 05:52:59;;;;;;;12.33;9.37;;;;;;;;;;5026843;28;20452;-92
2020/12/07 05:55:25;;;;;;;12.37;8.50;;;;;;;;;;5047407;28;20466;-93
2020/12/07 05:57:57;;;;;;;11.80;9.40;;;;;;;;;;5025738;28;20465;-96
2020/12/07 06:00:23;;;;;;;19.07;10.40;;;;;;;;;;5020211;28;20453;-93
2020/12/07 06:02:51;;;;;;;18.13;9.60;;;;;;;;;;5020844;28;20486;-94
2020/12/07 06:05:19;;;;;;;14.30;8.23;;;;;;;;;;5034808;28;20468;-93
2020/12/07 06:07:46;;;;;;;10.50;7.50;;;;;;;;;;5037820;28;20933;-94
2020/12/07 06:10:13;;;;;;;11.37;6.87;;;;;;;;;;5046279;28;20455;-96
2020/12/07 06:12:42;;;;;;;10.13;7.67;;;;;;;;;;5045258;28;20458;-94
2020/12/07 06:15:08;;;;;;;11.80;8.53;;;;;;;;;;5058643;28;20459;-96
2020/12/07 06:17:34;;;;;;;14.80;9.10;;;;;;;;;;5065072;28;20457;-96
2020/12/07 06:20:01;;;;;;;14.60;9.30;;;;;;;;;;5030690;28;20460;-93
2020/12/07 06:22:28;;;;;;;12.70;9.23;;;;;;;;;;5023821;28;20455;-93
2020/12/07 06:24:54;;;;;;;15.20;9.50;;;;;;;;;;5045121;28;20491;-92
2020/12/07 06:27:21;;;;;;;19.20;12.80;;;;;;;;;;5044368;28;20438;-91
2020/12/07 06:29:57;;;;;;;19.23;13.60;;;;;;;;;;5037506;28;20491;-95
2020/12/07 06:32:23;;;;;;;13.73;9.80;;;;;;;;;;5029116;28;20453;-93
2020/12/07 06:34:56;;;;;;;10.67;8.70;;;;;;;;;;5033872;28;20524;-93
2020/12/07 06:37:25;;;;;;;12.53;9.30;;;;;;;;;;5027238;28;20489;-94
2020/12/07 06:39:51;;;;;;;15.47;9.53;;;;;;;;;;5043977;28;20450;-93
2020/12/07 06:42:18;;;;;;;12.30;8.90;;;;;;;;;;5024212;28;20447;-93
2020/12/07 06:44:45;;;;;;;11.77;8.73;;;;;;;;;;5042519;28;20447;-93
2020/12/07 06:47:15;;;;;;;12.80;9.40;;;;;;;;;;5027076;28;20471;-94
2020/12/07 06:49:49;;;;;;;10.47;8.50;;;;;;;;;;5023242;28;20523;-95
2020/12/07 06:52:18;;;;;;;13.60;9.00;;;;;;;;;;5027245;28;20543;-96
2020/12/07 06:55:15;;;;;;;11.53;8.70;;;;;;;;;;5064677;28;20458;-95
2020/12/07 06:57:42;;;;;;;9.93;7.20;;;;;;;;;;5044149;28;20573;-93
2020/12/07 07:00:11;;;;;;;15.50;9.63;;;;;;;;;;5025250;28;20483;-96
2020/12/07 07:02:40;;;;;;;9.43;7.70;;;;;;;;;;5033763;28;20473;-96
2020/12/07 07:05:07;;;;;;;11.90;8.97;;;;;;;;;;5047172;28;20534;-96
2020/12/07 07:07:33;;;;;;;10.23;6.97;;;;;;;;;;5044616;28;20475;-93
2020/12/07 07:10:00;;;;;;;10.57;7.20;;;;;;;;;;5045609;28;20534;-93
2020/12/07 07:12:27;;;;;;;15.30;8.73;;;;;;;;;;5054040;28;20489;-95
2020/12/07 07:14:57;;;;;;;11.83;8.30;;;;;;;;;;5050707;28;20438;-96
2020/12/07 07:17:25;;;;;;;9.37;6.83;;;;;;;;;;5052355;28;20482;-90
2020/12/07 07:19:51;;;;;;;9.80;7.70;;;;;;;;;;5035520;28;20454;-96
2020/12/07 07:22:26;;;;;;;13.33;8.63;;;;;;;;;;5040841;28;20530;-96
2020/12/07 07:28:05;;;;;;;11.37;7.43;;;;;;;;;;5040506;28;20465;-96
2020/12/07 07:30:31;;;;;;;16.33;9.93;;;;;;;;;;5042112;28;20477;-93
2020/12/07 07:32:57;;;;;;;11.90;9.50;;;;;;;;;;5045899;28;20458;-93
2020/12/07 07:35:24;;;;;;;12.00;9.60;;;;;;;;;;5060742;28;20212;-94
2020/12/07 07:37:51;;;;;;;14.77;9.10;;;;;;;;;;5052162;28;20454;-96
2020/12/07 07:40:18;;;;;;;11.30;8.63;;;;;;;;;;5070207;28;20513;-95
2020/12/07 07:42:47;;;;;;;14.50;9.17;;;;;;;;;;5048371;28;20489;-93
2020/12/07 07:45:13;;;;;;;17.27;10.07;;;;;;;;;;5049874;28;20521;-96
2020/12/07 07:47:48;;;;;;;13.20;9.80;;;;;;;;;;5014441;28;20451;-94
2020/12/07 07:50:40;;;;;;;14.90;11.33;;;;;;;;;;5027340;28;20947;-93
2020/12/07 08:02:16;;;;;;;14.70;10.03;;;;;;;;;;4993798;28;20491;-95
2020/12/07 08:15:49;;;;;;;13.40;8.40;;;;;;;;;;5024000;28;20950;-95
2020/12/07 08:18:19;;;;;;;13.20;9.37;;;;;;;;;;5029751;28;20462;-96
2020/12/07 08:20:49;;;;;;;14.60;8.90;;;;;;;;;;5041783;28;20464;-96
2020/12/07 08:23:15;;;;;;;19.13;10.40;;;;;;;;;;5045984;28;20455;-94
2020/12/07 08:25:42;;;;;;;11.57;9.17;;;;;;;;;;5037155;28;20468;-96
2020/12/07 08:28:18;;;;;;;13.33;10.80;;;;;;;;;;5027794;28;20489;-96
2020/12/07 08:30:57;;;;;;;13.80;11.80;;;;;;;;;;5037633;28;20472;-95
2020/12/07 08:33:26;;;;;;;14.80;11.20;;;;;;;;;;5036307;28;21454;-96
2020/12/07 08:35:54;;;;;;;15.60;9.80;;;;;;;;;;5027486;28;20451;-95
2020/12/07 08:38:24;;;;;;;15.03;10.30;;;;;;;;;;5023830;28;20460;-95
2020/12/07 08:40:50;;;;;;;16.23;10.70;;;;;;;;;;5053750;28;20462;-93
2020/12/07 08:43:16;;;;;;;17.33;10.00;;;;;;;;;;5041660;28;20457;-94
2020/12/07 08:45:44;;;;;;;17.37;11.17;;;;;;;;;;5045963;28;20450;-95
2020/12/07 08:48:11;;;;;;;14.60;9.17;;;;;;;;;;5044236;28;20479;-95
2020/12/07 08:50:37;;;;;;;11.27;9.27;;;;;;;;;;5045037;28;20471;-94
2020/12/07 08:53:03;;;;;;;12.90;9.40;;;;;;;;;;5041768;28;20451;-94
2020/12/07 08:55:29;;;;;;;16.10;11.50;;;;;;;;;;5045976;28;20451;-92
2020/12/07 08:57:55;;;;;;;12.33;9.80;;;;;;;;;;5039905;28;20453;-92
2020/12/07 09:00:21;;;;;;;12.33;10.07;;;;;;;;;;5044763;28;20468;-96
2020/12/07 09:02:47;;;;;;;13.73;8.70;;;;;;;;;;5034916;28;20474;-93
2020/12/07 09:05:14;;;;;;;11.50;9.83;;;;;;;;;;5037071;28;20485;-93
2020/12/07 09:07:40;;;;;;;11.70;8.63;;;;;;;;;;5045226;28;20444;-92
2020/12/07 09:10:06;;;;;;;14.03;9.77;;;;;;;;;;5041117;28;20458;-94
2020/12/07 09:12:32;;;;;;;13.83;9.97;;;;;;;;;;5043743;28;20443;-94
2020/12/07 09:14:58;;;;;;;12.27;9.33;;;;;;;;;;5033956;28;20461;-93
2020/12/07 09:17:24;;;;;;;11.33;9.00;;;;;;;;;;5026961;28;20449;-95
2020/12/07 09:19:50;;;;;;;10.70;8.00;;;;;;;;;;5038319;28;20476;-94
2020/12/07 09:22:17;;;;;;;11.43;8.67;;;;;;;;;;5026691;28;20463;-96
2020/12/07 09:24:43;;;;;;;10.60;7.70;;;;;;;;;;5027247;28;20467;-95
2020/12/07 09:27:12;;;;;;;12.70;9.53;;;;;;;;;;5031501;28;20443;-95
2020/12/07 09:29:40;;;;;;;12.53;8.57;;;;;;;;;;5068252;28;20491;-94
2020/12/07 09:32:06;;;;;;;17.10;11.10;;;;;;;;;;5055682;28;20455;-96
2020/12/07 09:34:32;;;;;;;13.17;10.03;;;;;;;;;;5049798;28;20799;-96
2020/12/07 09:36:58;;;;;;;12.93;10.13;;;;;;;;;;5045619;28;20466;-96
2020/12/07 09:39:25;;;;;;;13.57;9.70;;;;;;;;;;5044870;28;20475;-93
2020/12/07 09:41:51;;;;;;;19.03;11.83;;;;;;;;;;5028972;28;20543;-94
2020/12/07 09:44:17;;;;;;;17.80;12.10;;;;;;;;;;5026519;28;20449;-93
2020/12/07 09:46:43;;;;;;;20.77;13.17;;;;;;;;;;5027098;28;20448;-93
2020/12/07 09:49:09;;;;;;;16.10;12.30;;;;;;;;;;5035949;28;20498;-92
2020/12/07 09:51:35;;;;;;;18.17;12.40;;;;;;;;;;5042659;28;20446;-94
2020/12/07 09:54:01;;;;;;;31.60;25.63;;;;;;;;;;5031898;28;20460;-94
2020/12/07 09:56:30;;;;;;;31.07;25.67;;;;;;;;;;5040074;28;20455;-96
2020/12/07 09:58:58;;;;;;;26.23;21.83;;;;;;;;;;5033821;28;20491;-95
2020/12/07 10:01:24;;;;;;;23.07;14.90;;;;;;;;;;4991159;28;21188;-95
2020/12/07 10:03:51;;;;;;;21.47;14.97;;;;;;;;;;5023557;28;20477;-94
2020/12/07 10:06:17;;;;;;;18.50;14.30;;;;;;;;;;5045014;28;20472;-95
2020/12/07 10:08:43;;;;;;;21.30;14.33;;;;;;;;;;5040871;28;20494;-94
2020/12/07 10:11:09;;;;;;;17.07;12.57;;;;;;;;;;5035551;28;20443;-93
2020/12/07 10:13:36;;;;;;;14.23;10.97;;;;;;;;;;5043655;28;20523;-94
2020/12/07 10:16:02;;;;;;;14.23;10.30;;;;;;;;;;5039151;28;20470;-93
2020/12/07 10:18:31;;;;;;;14.87;10.63;;;;;;;;;;5043590;28;20470;-96
2020/12/07 10:20:57;;;;;;;15.30;10.17;;;;;;;;;;5036992;28;20912;-93
2020/12/07 10:23:23;;;;;;;20.40;15.30;;;;;;;;;;5042879;28;20456;-94
2020/12/07 10:25:49;;;;;;;18.43;14.27;;;;;;;;;;5045487;28;20460;-94
2020/12/07 10:28:15;;;;;;;14.03;10.70;;;;;;;;;;5025745;28;20496;-95
2020/12/07 10:30:42;;;;;;;16.10;11.10;;;;;;;;;;5044281;28;20436;-93
2020/12/07 10:33:08;;;;;;;15.40;11.13;;;;;;;;;;5039380;28;20472;-92
2020/12/07 10:35:34;;;;;;;13.63;9.93;;;;;;;;;;5048052;28;20455;-93
2020/12/07 10:38:01;;;;;;;15.20;10.90;;;;;;;;;;5038582;28;20457;-93
2020/12/07 10:40:27;;;;;;;12.63;9.70;;;;;;;;;;5023618;28;20821;-94
2020/12/07 10:42:53;;;;;;;25.50;20.17;;;;;;;;;;5028319;28;20442;-93
2020/12/07 10:45:19;;;;;;;31.80;26.97;;;;;;;;;;5043402;28;20644;-93
2020/12/07 10:47:47;;;;;;;26.83;23.93;;;;;;;;;;5042537;28;20488;-94
2020/12/07 10:50:13;;;;;;;23.20;20.00;;;;;;;;;;5042560;28;20555;-95
2020/12/07 10:52:39;;;;;;;23.00;18.17;;;;;;;;;;5053367;28;20443;-96
2020/12/07 10:55:05;;;;;;;24.37;19.50;;;;;;;;;;5037016;28;21038;-95
2020/12/07 10:57:31;;;;;;;22.87;17.20;;;;;;;;;;5045417;28;20455;-96
2020/12/07 10:59:57;;;;;;;17.40;12.43;;;;;;;;;;5035818;28;20492;-96
2020/12/07 11:02:23;;;;;;;14.30;11.37;;;;;;;;;;5042454;28;20447;-96
2020/12/07 11:04:50;;;;;;;17.57;11.93;;;;;;;;;;5040666;28;20517;-96
2020/12/07 11:09:48;;;;;;;16.10;11.13;;;;;;;;;;5040527;28;20646;-96
2020/12/07 11:12:16;;;;;;;14.17;11.50;;;;;;;;;;5036072;28;20439;-95
2020/12/07 11:14:44;;;;;;;20.43;12.90;;;;;;;;;;5024701;28;20461;-96
2020/12/07 11:17:10;;;;;;;24.00;17.93;;;;;;;;;;5041834;28;20455;-95
2020/12/07 11:19:36;;;;;;;34.57;26.80;;;;;;;;;;5043197;28;20458;-96
2020/12/07 11:22:04;;;;;;;23.20;18.40;;;;;;;;;;5036300;28;20972;-96
2020/12/07 11:24:30;;;;;;;17.43;12.53;;;;;;;;;;5040225;28;20486;-95
2020/12/07 11:26:57;;;;;;;16.33;12.00;;;;;;;;;;5036622;28;20462;-96
2020/12/07 11:29:23;;;;;;;20.90;16.97;;;;;;;;;;5040432;28;20522;-96
2020/12/07 11:31:50;;;;;;;32.67;25.43;;;;;;;;;;5038308;28;20460;-95
2020/12/07 11:34:19;;;;;;;38.60;27.37;;;;;;;;;;5030611;28;20472;-96
2020/12/07 11:36:45;;;;;;;28.33;22.23;;;;;;;;;;5043802;28;20478;-96
2020/12/07 11:39:28;;;;;;;17.17;12.57;;;;;;;;;;5023905;28;20456;-96
2020/12/07 11:42:03;;;;;;;18.17;12.20;;;;;;;;;;5021635;28;20457;-95
2020/12/07 11:44:29;;;;;;;19.97;13.80;;;;;;;;;;5034083;28;20469;-95
2020/12/07 11:46:58;;;;;;;31.07;21.37;;;;;;;;;;5042084;28;20522;-95
2020/12/07 11:49:24;;;;;;;42.10;32.40;;;;;;;;;;5036536;28;20494;-96
2020/12/07 11:51:50;;;;;;;31.77;23.63;;;;;;;;;;5042136;28;20844;-95
2020/12/07 11:54:17;;;;;;;38.77;30.50;;;;;;;;;;5024502;28;20471;-95
2020/12/07 11:56:43;;;;;;;42.03;33.40;;;;;;;;;;5042144;28;20447;-95
2020/12/07 11:59:09;;;;;;;55.07;41.90;;;;;;;;;;5039258;28;20459;-95
2020/12/07 12:01:36;;;;;;;52.87;41.50;;;;;;;;;;5036866;28;20439;-96
2020/12/07 12:04:03;;;;;;;37.93;27.90;;;;;;;;;;5058394;28;20455;-96
2020/12/07 12:06:34;;;;;;;52.70;40.43;;;;;;;;;;5027171;28;20467;-96
2020/12/07 12:09:01;;;;;;;39.40;29.83;;;;;;;;;;5027782;28;20578;-96
2020/12/07 12:11:28;;;;;;;47.20;35.90;;;;;;;;;;5025360;28;20551;-95
2020/12/07 12:13:55;;;;;;;41.30;29.33;;;;;;;;;;5041733;28;20505;-96
2020/12/07 12:16:26;;;;;;;38.30;28.57;;;;;;;;;;5044522;28;20444;-96
2020/12/07 12:18:54;;;;;;;47.83;32.20;;;;;;;;;;5054977;28;20471;-96
2020/12/07 12:21:21;;;;;;;53.87;41.60;;;;;;;;;;5052230;28;20449;-96
2020/12/07 12:23:50;;;;;;;57.47;42.90;;;;;;;;;;5060503;28;20463;-96
2020/12/07 12:26:18;;;;;;;55.37;40.30;;;;;;;;;;5034905;28;20519;-96
2020/12/07 12:28:48;;;;;;;49.07;33.43;;;;;;;;;;5040048;28;20497;-96
2020/12/07 12:31:15;;;;;;;38.70;28.50;;;;;;;;;;5049870;28;20591;-96
2020/12/07 12:33:44;;;;;;;38.10;26.20;;;;;;;;;;5050770;28;20560;-96
2020/12/07 12:36:15;;;;;;;40.73;28.87;;;;;;;;;;5054502;28;20415;-96
2020/12/07 12:38:42;;;;;;;35.50;25.83;;;;;;;;;;5043599;28;20539;-96
2020/12/07 12:41:09;;;;;;;38.20;28.10;;;;;;;;;;5033149;28;20466;-96
2020/12/07 12:46:26;;;;;;;39.40;28.47;;;;;;;;;;5056914;28;20457;-96
2020/12/07 12:49:04;;;;;;;38.77;28.00;;;;;;;;;;5053393;28;20470;-96
2020/12/07 12:57:11;;;;;;;33.43;23.17;;;;;;;;;;5044891;28;20444;-96
2020/12/07 13:08:02;;;;;;;34.90;23.90;;;;;;;;;;5168181;23;20497;-96
2020/12/07 13:13:40;;;;;;;32.50;22.70;;;;;;;;;;5060171;23;20429;-96
2020/12/07 13:16:18;;;;;;;38.20;25.37;;;;;;;;;;5002498;28;20488;-95
2020/12/07 13:18:48;;;;;;;34.60;23.70;;;;;;;;;;5013470;28;20444;-96
2020/12/07 13:21:22;;;;;;;31.73;23.03;;;;;;;;;;4997404;28;20449;-96
2020/12/07 13:23:54;;;;;;;33.87;23.53;;;;;;;;;;4997248;28;20458;-96
2020/12/07 13:26:31;;;;;;;33.20;22.90;;;;;;;;;;4994430;28;20457;-96
2020/12/07 13:28:59;;;;;;;46.83;27.23;;;;;;;;;;4986763;28;20570;-96
2020/12/07 13:37:03;;;;;;;47.23;29.20;;;;;;;;;;4999860;28;20481;-96
2020/12/07 13:39:33;;;;;;;46.00;29.40;;;;;;;;;;5004550;28;20464;-96
2020/12/07 13:47:48;;;;;;;25.10;18.27;;;;;;;;;;5025083;23;20482;-96
2020/12/07 13:52:55;;;;;;;32.73;20.03;;;;;;;;;;5365991;23;20497;-96
2020/12/07 13:58:50;;;;;;;37.50;24.80;;;;;;;;;;4999782;28;20422;-96
2020/12/07 14:01:23;;;;;;;31.10;22.83;;;;;;;;;;4968771;28;20450;-96
2020/12/07 15:34:21;;;;;;;40.93;28.17;;;;;;;;;;5584917;23;20490;-96
2020/12/07 15:42:21;;;;;;;53.27;33.17;;;;;;;;;;5177213;22;20482;-96
2020/12/07 17:12:32;;;;;;;51.23;34.10;;;;;;;;;;5135656;27;880766;-96
2020/12/07 17:14:59;;;;;;;35.10;24.80;;;;;;;;;;5142568;28;20464;-96
2020/12/07 17:23:14;;;;;;;41.50;26.10;;;;;;;;;;5072399;28;20475;-96
2020/12/07 17:26:16;;;;;;;40.10;25.83;;;;;;;;;;5067859;28;20511;-96
2020/12/07 17:28:43;;;;;;;33.83;23.17;;;;;;;;;;5071175;28;20450;-96
2020/12/07 17:31:25;;;;;;;24.80;19.77;;;;;;;;;;5071260;28;20485;-96
2020/12/07 17:34:00;;;;;;;24.40;18.93;;;;;;;;;;5067078;28;20474;-96
2020/12/07 17:36:34;;;;;;;24.93;18.40;;;;;;;;;;5045265;28;20442;-96
2020/12/07 17:39:00;;;;;;;31.13;22.03;;;;;;;;;;5057108;28;20479;-96
2020/12/07 17:41:28;;;;;;;27.93;19.87;;;;;;;;;;5066138;28;20461;-96
2020/12/07 17:44:00;;;;;;;25.30;18.47;;;;;;;;;;5072531;28;20472;-96
2020/12/07 17:46:31;;;;;;;41.57;29.90;;;;;;;;;;5062211;28;20468;-96
2020/12/07 17:54:56;;;;;;;40.77;31.37;;;;;;;;;;5049380;28;20465;-96
2020/12/07 17:57:23;;;;;;;37.27;28.47;;;;;;;;;;5053487;28;20438;-96
2020/12/07 18:00:11;;;;;;;39.00;28.67;;;;;;;;;;5051984;28;20455;-96
2020/12/07 18:02:39;;;;;;;37.87;30.50;;;;;;;;;;5061983;28;20472;-96
2020/12/07 18:08:24;;;;;;;;;;;;;;;;;;;;;
2020/12/07 18:10:52;;;;;;;38.40;27.30;;;;;;;;;;5045578;28;20917;-96
2020/12/07 18:13:21;;;;;;;34.23;26.43;;;;;;;;;;5061264;28;20450;-96
2020/12/07 18:15:49;;;;;;;37.47;27.27;;;;;;;;;;5065102;28;20470;-96
2020/12/07 18:18:17;;;;;;;44.40;33.40;;;;;;;;;;5061379;28;20470;-96
2020/12/07 18:20:44;;;;;;;50.87;38.20;;;;;;;;;;5045114;28;20475;-96
2020/12/07 18:23:11;;;;;;;46.93;34.83;;;;;;;;;;5033281;28;20539;-96
2020/12/07 18:25:37;;;;;;;51.97;37.10;;;;;;;;;;5030901;28;20463;-94
2020/12/07 18:28:15;;;;;;;45.77;35.23;;;;;;;;;;5034190;28;20459;-96
2020/12/07 18:31:03;;;;;;;46.90;34.20;;;;;;;;;;5054020;28;20481;-96
2020/12/07 18:33:36;;;;;;;40.87;29.77;;;;;;;;;;5057896;28;20426;-96
2020/12/07 18:55:04;;;;;;;42.27;29.17;;;;;;;;;;5018657;28;20990;-96
2020/12/07 19:00:41;;;;;;;32.70;23.13;;;;;;;;;;5052715;28;20442;-96
2020/12/07 19:03:13;;;;;;;28.60;22.40;;;;;;;;;;5037566;28;20534;-96
2020/12/07 19:26:03;;;;;;;35.47;27.77;;;;;;;;;;5507189;22;20553;-96
2020/12/07 19:46:09;;;;;;;35.57;25.20;;;;;;;;;;5055262;28;20446;-96
2020/12/07 19:59:09;;;;;;;39.70;26.97;;;;;;;;;;5115321;22;20490;-96